LFET weather

Public forecast

Using degrees Celsius for public forecast. Weather courtesy of forecast.io.

Closest aviation weather report (METAR) to Til Châtel Airfield

Closest report is Dijon-Bourgogne Airport, 17.4 nm (32.3 km) SSW. Retrieved 2020/08/15 14:30 UTC (0 seconds ago):

LFSD 151430Z AUTO 12005KT 030V160 CAVOK 29/13 Q1013

Closest aviation forecast (TAF) to Til Châtel Airfield

Forecast is more than 12 hours old.

Closest forecast is Dijon-Bourgogne Airport, 17.4 nm (32.3 km) SSW. Retrieved 2015/06/01 00:11 UTC (5 years ago):

TAF LFSD 010600Z 0100/0124 CNL